Time;durP1;ratioP1;P1;durP2;ratioP2;P2;SDS_P1;SDS_P2;PMS_P1;PMS_P2;Temp;Humidity;BMP_temperature;BMP_pressure;BME280_temperature;BME280_humidity;BME280_pressure;Samples;Min_cycle;Max_cycle;Signal;HPM_P1;HPM_P2
2023/01/12 00:01:44;;;;;;;4.43;1.67;;;5.40;99.90;;;;;;4959458;28;20273;-43
2023/01/12 00:04:12;;;;;;;3.33;1.40;;;5.40;99.90;;;;;;4975129;28;20194;-42
2023/01/12 00:06:38;;;;;;;4.17;1.73;;;5.40;99.90;;;;;;4975298;28;20181;-43
2023/01/12 00:09:07;;;;;;;4.90;1.30;;;5.40;99.90;;;;;;4992919;28;20196;-43
2023/01/12 00:11:33;;;;;;;3.77;1.50;;;5.30;99.90;;;;;;4975174;28;20245;-41
2023/01/12 00:13:59;;;;;;;3.67;1.37;;;5.30;99.90;;;;;;4991430;28;20213;-43
2023/01/12 00:16:38;;;;;;;3.17;1.50;;;5.30;99.90;;;;;;4983532;28;20189;-44
2023/01/12 00:19:11;;;;;;;3.23;1.30;;;5.30;99.90;;;;;;4973651;28;20179;-42
2023/01/12 00:22:10;;;;;;;3.60;1.30;;;5.30;99.90;;;;;;4990576;28;20185;-43
2023/01/12 00:24:38;;;;;;;5.97;1.73;;;5.40;99.90;;;;;;4957053;28;20198;-43
2023/01/12 00:27:09;;;;;;;3.00;1.40;;;5.40;99.90;;;;;;4992296;28;20174;-42
2023/01/12 00:29:36;;;;;;;7.00;1.67;;;5.40;99.90;;;;;;4975063;28;20753;-43
2023/01/12 00:32:04;;;;;;;3.90;1.53;;;5.40;99.90;;;;;;4992674;28;20213;-40
2023/01/12 00:34:30;;;;;;;3.83;1.53;;;5.40;99.90;;;;;;4997500;28;20203;-43
2023/01/12 00:36:59;;;;;;;3.77;1.57;;;5.50;99.90;;;;;;4989622;28;20671;-42
2023/01/12 00:39:25;;;;;;;2.97;1.23;;;5.50;99.90;;;;;;4990321;28;20182;-42
2023/01/12 00:47:19;;;;;;;3.00;1.43;;;5.50;99.90;;;;;;4992837;28;20213;-42
2023/01/12 00:49:46;;;;;;;5.50;1.60;;;5.50;99.90;;;;;;4993500;28;20186;-43
2023/01/12 00:52:15;;;;;;;5.07;1.90;;;5.50;99.90;;;;;;4981049;28;20259;-42
2023/01/12 00:54:41;;;;;;;5.87;1.70;;;5.60;99.90;;;;;;4980806;28;20193;-43
2023/01/12 00:57:08;;;;;;;5.40;1.80;;;5.60;99.90;;;;;;4990446;28;20197;-43
2023/01/12 00:59:34;;;;;;;3.30;1.50;;;5.70;99.90;;;;;;4989040;28;20193;-42
2023/01/12 01:02:00;;;;;;;3.83;1.40;;;5.70;99.90;;;;;;4991635;28;20255;-42
2023/01/12 01:04:26;;;;;;;7.20;1.50;;;5.80;99.90;;;;;;4990615;28;20188;-43
2023/01/12 01:06:52;;;;;;;8.00;1.87;;;5.80;99.90;;;;;;4974459;28;20237;-42
2023/01/12 01:09:18;;;;;;;8.07;1.50;;;5.90;99.90;;;;;;4968949;28;20715;-43
2023/01/12 01:11:44;;;;;;;6.03;1.50;;;5.90;99.90;;;;;;4971393;28;20178;-43
2023/01/12 01:14:11;;;;;;;4.23;1.50;;;6.00;99.90;;;;;;4982910;28;20221;-43
2023/01/12 01:16:37;;;;;;;5.30;1.70;;;6.00;99.90;;;;;;5017134;23;20234;-89
2023/01/12 01:19:04;;;;;;;4.63;1.80;;;6.00;99.90;;;;;;5011951;28;20188;-88
2023/01/12 01:21:34;;;;;;;5.70;1.53;;;6.00;99.90;;;;;;5028492;28;20177;-89
2023/01/12 01:23:59;;;;;;;5.40;1.70;;;6.00;99.90;;;;;;5011860;28;20182;-88
2023/01/12 01:26:25;;;;;;;5.77;2.00;;;6.00;99.90;;;;;;5011850;28;20212;-89
2023/01/12 01:28:51;;;;;;;4.60;1.33;;;6.00;99.90;;;;;;5028106;28;20232;-89
2023/01/12 01:31:20;;;;;;;4.30;1.50;;;6.00;99.90;;;;;;5011947;28;20203;-88
2023/01/12 01:33:47;;;;;;;2.77;1.50;;;6.10;99.90;;;;;;5012734;28;20218;-89
2023/01/12 01:36:17;;;;;;;4.80;1.57;;;6.10;99.90;;;;;;5012649;28;20206;-88
2023/01/12 01:38:44;;;;;;;5.43;1.73;;;6.20;99.90;;;;;;5011746;28;20262;-88
2023/01/12 01:41:18;;;;;;;3.03;1.47;;;6.20;99.90;;;;;;5011861;28;20180;-88
2023/01/12 01:43:59;;;;;;;5.13;2.03;;;6.20;99.90;;;;;;5011995;28;20181;-89
2023/01/12 01:46:39;;;;;;;4.47;1.50;;;6.30;99.90;;;;;;4999252;28;20211;-88
2023/01/12 01:49:29;;;;;;;8.03;1.80;;;6.40;99.90;;;;;;5017194;28;20186;-88
2023/01/12 01:52:21;;;;;;;5.03;1.73;;;6.40;99.90;;;;;;4959632;28;20186;-88
2023/01/12 01:55:11;;;;;;;2.27;1.23;;;6.50;99.90;;;;;;4988980;28;20659;-88
2023/01/12 01:58:08;;;;;;;9.10;1.60;;;6.60;99.90;;;;;;4979637;28;20211;-88
2023/01/12 02:00:37;;;;;;;4.70;1.27;;;6.70;99.90;;;;;;4968181;28;20196;-89
2023/01/12 02:03:38;;;;;;;3.30;1.20;;;6.70;99.90;;;;;;4979759;28;20207;-89
2023/01/12 02:06:06;;;;;;;4.77;1.57;;;6.70;99.90;;;;;;4980593;28;20225;-89
2023/01/12 02:09:14;;;;;;;7.03;1.60;;;6.70;99.90;;;;;;5016376;28;20199;-89
2023/01/12 02:17:15;;;;;;;10.53;1.43;;;6.70;99.90;;;;;;4981619;28;20207;-89
2023/01/12 02:20:19;;;;;;;7.43;1.13;;;6.70;99.90;;;;;;5017190;28;20235;-89
2023/01/12 02:22:45;;;;;;;3.27;1.33;;;6.80;99.90;;;;;;4989123;28;20210;-89
2023/01/12 02:25:37;;;;;;;4.97;1.67;;;6.80;99.90;;;;;;5026233;28;20190;-89
2023/01/12 02:28:48;;;;;;;4.27;1.33;;;6.80;99.90;;;;;;4976686;28;20191;-88
2023/01/12 02:31:23;;;;;;;4.80;1.60;;;6.80;99.90;;;;;;4996467;28;20198;-89
2023/01/12 02:33:57;;;;;;;7.17;1.70;;;6.80;99.90;;;;;;4998986;28;20209;-88
2023/01/12 02:36:23;;;;;;;6.90;1.73;;;6.80;99.90;;;;;;4999384;28;20209;-88
2023/01/12 02:39:07;;;;;;;4.60;1.40;;;6.70;99.90;;;;;;4999551;28;20274;-88
2023/01/12 02:44:47;;;;;;;8.13;2.30;;;6.70;99.90;;;;;;4994303;28;20190;-88
2023/01/12 02:47:23;;;;;;;8.23;1.63;;;6.70;99.90;;;;;;5006529;28;20202;-88
2023/01/12 02:49:54;;;;;;;5.73;1.73;;;6.60;99.90;;;;;;5014596;28;20194;-88
2023/01/12 02:52:25;;;;;;;8.37;1.57;;;6.60;99.90;;;;;;4998251;28;20179;-88
2023/01/12 02:54:52;;;;;;;5.33;1.40;;;6.70;99.90;;;;;;4997806;28;20271;-88
2023/01/12 02:57:23;;;;;;;4.17;1.20;;;6.60;99.90;;;;;;5014403;28;20275;-88
2023/01/12 02:59:50;;;;;;;7.03;1.77;;;6.60;99.90;;;;;;4997813;28;20213;-88
2023/01/12 03:02:20;;;;;;;5.07;1.57;;;6.60;99.90;;;;;;4998257;28;20206;-88
2023/01/12 03:04:46;;;;;;;5.33;1.47;;;6.60;99.90;;;;;;4997039;28;20183;-88
2023/01/12 03:07:20;;;;;;;7.63;1.23;;;6.60;99.90;;;;;;4981546;28;20210;-88
2023/01/12 03:10:11;;;;;;;5.57;1.40;;;6.60;99.90;;;;;;4997759;28;20175;-88
2023/01/12 03:12:38;;;;;;;5.80;1.20;;;6.60;99.90;;;;;;4997863;28;20260;-88
2023/01/12 03:15:07;;;;;;;6.67;1.43;;;6.60;99.90;;;;;;5012683;28;20194;-88
2023/01/12 03:17:42;;;;;;;4.53;1.30;;;6.70;99.90;;;;;;4981493;28;20254;-89
2023/01/12 03:20:37;;;;;;;4.53;1.37;;;6.70;99.90;;;;;;5015396;28;20170;-88
2023/01/12 03:23:11;;;;;;;5.43;1.43;;;6.70;99.90;;;;;;4981748;28;20309;-89
2023/01/12 03:25:41;;;;;;;4.53;1.40;;;6.70;99.90;;;;;;4997768;28;20181;-88
2023/01/12 03:28:09;;;;;;;5.70;1.63;;;6.60;99.90;;;;;;4997650;28;20217;-89
2023/01/12 03:30:42;;;;;;;6.00;1.53;;;6.60;99.90;;;;;;4980266;28;20188;-88
2023/01/12 03:33:09;;;;;;;4.83;1.50;;;6.60;99.90;;;;;;4997286;28;20195;-89
2023/01/12 03:35:42;;;;;;;6.57;1.43;;;6.60;99.90;;;;;;4981388;28;20186;-88
2023/01/12 03:38:23;;;;;;;4.23;1.53;;;6.60;99.90;;;;;;4981440;28;20173;-89
2023/01/12 03:44:56;;;;;;;5.10;1.13;;;6.50;99.90;;;;;;5014075;28;20163;-89
2023/01/12 03:47:25;;;;;;;9.13;1.60;;;6.50;99.90;;;;;;4991370;28;20252;-88
2023/01/12 03:50:06;;;;;;;7.00;1.70;;;6.50;99.90;;;;;;5029970;28;20273;-88
2023/01/12 03:52:34;;;;;;;6.13;1.70;;;6.50;99.90;;;;;;5030166;28;20274;-89
2023/01/12 03:55:02;;;;;;;7.83;1.70;;;6.60;99.90;;;;;;5008361;28;20188;-89
2023/01/12 03:57:29;;;;;;;7.73;1.50;;;6.60;99.90;;;;;;4996881;28;20199;-88
2023/01/12 03:59:56;;;;;;;4.40;1.43;;;6.60;99.90;;;;;;5013250;28;20178;-88
2023/01/12 04:02:22;;;;;;;4.93;1.50;;;6.60;99.90;;;;;;4996758;28;20541;-89
2023/01/12 04:04:48;;;;;;;6.63;1.73;;;6.60;99.90;;;;;;4996768;28;20183;-89
2023/01/12 04:07:13;;;;;;;8.90;1.93;;;6.60;99.90;;;;;;4996424;28;20193;-88
2023/01/12 04:09:39;;;;;;;10.67;2.03;;;6.60;99.90;;;;;;4996359;28;20171;-88
2023/01/12 04:12:11;;;;;;;8.23;2.00;;;6.60;99.90;;;;;;4996211;28;20194;-88
2023/01/12 04:14:55;;;;;;;6.20;1.83;;;6.70;99.90;;;;;;4997163;28;20194;-88
2023/01/12 04:17:24;;;;;;;5.90;1.30;;;6.70;99.90;;;;;;5001518;28;20210;-88
2023/01/12 04:20:11;;;;;;;7.23;1.60;;;6.80;99.90;;;;;;5013171;28;20172;-89
2023/01/12 04:22:43;;;;;;;5.30;1.17;;;6.80;99.90;;;;;;5036899;28;20277;-89
2023/01/12 04:25:21;;;;;;;5.33;1.50;;;6.80;99.90;;;;;;5045499;28;20170;-90
2023/01/12 04:27:52;;;;;;;6.17;1.57;;;6.80;99.90;;;;;;5003658;28;20264;-89
2023/01/12 04:30:22;;;;;;;6.40;1.80;;;6.80;99.90;;;;;;5012941;28;20263;-89
2023/01/12 04:32:48;;;;;;;8.23;1.77;;;6.80;99.90;;;;;;5013331;28;20214;-89
2023/01/12 04:35:15;;;;;;;6.33;1.80;;;6.80;99.90;;;;;;4996777;28;20213;-89
2023/01/12 04:37:41;;;;;;;8.23;1.60;;;6.80;99.90;;;;;;4996776;28;20199;-89
2023/01/12 04:40:10;;;;;;;6.10;1.40;;;6.80;99.90;;;;;;5011819;28;20179;-89
2023/01/12 04:43:06;;;;;;;7.53;1.37;;;6.90;99.90;;;;;;5028439;28;20193;-88
2023/01/12 04:45:38;;;;;;;7.30;1.43;;;6.90;99.90;;;;;;5011979;28;20234;-89
2023/01/12 04:48:10;;;;;;;5.77;1.63;;;6.80;99.90;;;;;;4995615;28;20180;-89
2023/01/12 04:50:37;;;;;;;7.80;1.50;;;6.90;99.90;;;;;;4995410;28;20188;-89
2023/01/12 04:53:05;;;;;;;7.53;1.80;;;6.90;99.90;;;;;;5020874;28;20203;-89
2023/01/12 04:55:36;;;;;;;8.73;1.93;;;6.90;99.90;;;;;;5013701;28;20643;-89
2023/01/12 04:58:05;;;;;;;7.63;2.00;;;6.90;99.90;;;;;;5012294;28;20179;-88
2023/01/12 05:00:31;;;;;;;7.27;1.93;;;6.90;99.90;;;;;;5011958;28;20171;-89
2023/01/12 05:03:37;;;;;;;5.47;1.63;;;6.90;99.90;;;;;;4995823;28;20192;-89
2023/01/12 05:06:04;;;;;;;9.07;2.07;;;6.90;99.90;;;;;;4978473;28;20314;-89
2023/01/12 05:11:16;;;;;;;5.57;1.67;;;6.90;99.90;;;;;;5012305;28;20179;-89
2023/01/12 05:13:44;;;;;;;9.47;2.47;;;6.90;99.90;;;;;;4995475;28;20268;-90
2023/01/12 05:16:16;;;;;;;8.13;1.80;;;6.90;99.90;;;;;;4995400;28;20278;-89
2023/01/12 05:18:43;;;;;;;4.33;1.47;;;6.90;99.90;;;;;;4990471;28;20190;-89
2023/01/12 05:21:10;;;;;;;5.50;1.93;;;6.90;99.90;;;;;;4998665;28;20179;-89
2023/01/12 05:23:36;;;;;;;8.27;1.60;;;6.90;99.90;;;;;;5027922;28;20179;-89
2023/01/12 05:26:03;;;;;;;11.57;2.50;;;6.90;99.90;;;;;;5011888;28;20211;-89
2023/01/12 05:28:29;;;;;;;9.13;1.90;;;6.90;99.90;;;;;;5010535;28;20196;-89
2023/01/12 05:31:02;;;;;;;6.97;1.63;;;6.80;99.90;;;;;;5011017;28;20182;-89
2023/01/12 05:33:27;;;;;;;7.67;2.47;;;6.80;99.90;;;;;;5011767;28;20209;-89
2023/01/12 05:35:53;;;;;;;6.67;3.03;;;6.80;99.90;;;;;;4994855;28;20207;-89
2023/01/12 05:38:19;;;;;;;9.20;1.93;;;6.80;99.90;;;;;;5012506;28;20184;-88
2023/01/12 05:40:45;;;;;;;8.73;1.70;;;6.90;99.90;;;;;;5012749;28;20185;-89
2023/01/12 05:46:03;;;;;;;13.90;6.43;;;6.90;99.90;;;;;;5008727;28;20203;-90
2023/01/12 05:48:30;;;;;;;12.03;5.43;;;6.90;99.90;;;;;;4994231;28;20183;-91
2023/01/12 05:51:02;;;;;;;8.87;3.37;;;6.90;99.90;;;;;;4995778;28;20194;-91
2023/01/12 05:53:33;;;;;;;9.97;3.63;;;6.80;99.90;;;;;;5011438;28;20203;-91
2023/01/12 05:56:09;;;;;;;10.10;1.73;;;6.80;99.90;;;;;;4995516;28;20202;-91
2023/01/12 05:58:36;;;;;;;8.10;2.13;;;6.80;99.90;;;;;;5012353;28;20230;-91
2023/01/12 06:01:10;;;;;;;5.47;1.87;;;6.90;99.90;;;;;;4996593;28;20317;-91
2023/01/12 06:03:37;;;;;;;10.53;2.63;;;6.90;99.90;;;;;;5011143;28;20191;-90
2023/01/12 06:06:03;;;;;;;6.57;2.10;;;6.90;99.90;;;;;;4994917;28;20205;-90
2023/01/12 06:08:29;;;;;;;13.70;5.33;;;6.90;99.90;;;;;;4994740;28;20211;-91
2023/01/12 06:11:00;;;;;;;9.43;2.80;;;6.90;99.90;;;;;;5010233;28;20198;-91
2023/01/12 06:16:10;;;;;;;6.80;2.10;;;6.90;99.90;;;;;;5007887;28;20222;-90
2023/01/12 06:18:36;;;;;;;9.43;2.20;;;6.90;99.90;;;;;;4994464;28;20209;-91
2023/01/12 06:21:04;;;;;;;8.67;1.53;;;6.90;99.90;;;;;;5013195;28;20209;-90
2023/01/12 06:23:30;;;;;;;9.97;1.80;;;6.90;99.90;;;;;;5020912;28;20190;-90
2023/01/12 06:26:00;;;;;;;5.57;1.60;;;7.00;99.90;;;;;;5011062;28;20217;-90
2023/01/12 06:28:26;;;;;;;10.00;2.10;;;7.00;99.90;;;;;;4994667;28;20194;-90
2023/01/12 06:31:00;;;;;;;7.53;1.93;;;7.00;99.90;;;;;;5011233;28;20176;-91
2023/01/12 06:33:27;;;;;;;6.83;1.73;;;7.00;99.90;;;;;;4994603;28;20213;-91
2023/01/12 06:35:54;;;;;;;9.33;2.40;;;7.00;99.90;;;;;;5011641;28;20209;-91
2023/01/12 06:38:38;;;;;;;11.33;2.63;;;6.90;99.90;;;;;;4994618;28;20176;-91
2023/01/12 06:43:53;;;;;;;7.90;3.83;;;6.90;99.90;;;;;;5014206;28;20192;-91
2023/01/12 06:46:19;;;;;;;10.30;3.87;;;6.90;99.90;;;;;;4997742;28;20264;-91
2023/01/12 06:48:45;;;;;;;12.47;3.00;;;6.90;99.90;;;;;;4997643;28;20316;-90
2023/01/12 06:51:10;;;;;;;9.00;2.63;;;6.90;99.90;;;;;;4997468;28;20189;-91
2023/01/12 06:53:36;;;;;;;6.27;2.17;;;6.90;99.90;;;;;;5013948;28;20275;-90
2023/01/12 06:56:04;;;;;;;5.30;2.37;;;6.90;99.90;;;;;;5004057;28;20206;-91
2023/01/12 06:58:30;;;;;;;7.23;2.10;;;6.80;99.90;;;;;;4997430;28;20189;-91
2023/01/12 07:01:03;;;;;;;8.13;2.50;;;6.90;99.90;;;;;;4981185;28;20178;-91
2023/01/12 07:03:29;;;;;;;8.50;2.37;;;6.90;99.90;;;;;;5014085;28;20269;-91
2023/01/12 07:05:58;;;;;;;9.47;2.93;;;6.90;99.90;;;;;;5013718;28;20213;-91
2023/01/12 07:08:24;;;;;;;11.03;2.70;;;7.00;99.90;;;;;;4997586;28;20196;-91
2023/01/12 07:10:50;;;;;;;9.70;2.27;;;7.00;99.90;;;;;;4997500;28;20175;-90
2023/01/12 07:13:16;;;;;;;6.57;1.80;;;7.10;99.90;;;;;;4997370;28;20299;-91
2023/01/12 07:15:42;;;;;;;7.77;2.10;;;7.10;99.90;;;;;;5014571;28;20187;-90
2023/01/12 07:18:08;;;;;;;6.37;1.33;;;7.20;99.90;;;;;;4997760;28;20169;-91
2023/01/12 07:20:34;;;;;;;7.83;1.80;;;7.20;99.90;;;;;;4997183;28;20277;-91
2023/01/12 07:23:00;;;;;;;5.47;1.40;;;7.30;99.90;;;;;;4996760;28;20181;-91
2023/01/12 07:25:26;;;;;;;4.60;1.20;;;7.30;99.90;;;;;;4997266;28;20287;-91
2023/01/12 07:27:54;;;;;;;8.60;2.80;;;7.30;99.90;;;;;;4997246;28;20203;-92
2023/01/12 07:30:21;;;;;;;5.93;1.63;;;7.30;99.90;;;;;;5013958;28;20191;-91
2023/01/12 07:32:50;;;;;;;3.87;1.53;;;7.30;99.90;;;;;;4997174;28;20213;-91
2023/01/12 07:35:17;;;;;;;6.63;2.03;;;7.30;99.90;;;;;;4997206;28;20186;-91
2023/01/12 07:37:52;;;;;;;7.70;1.93;;;7.30;99.90;;;;;;4997582;28;20205;-91
2023/01/12 07:40:18;;;;;;;9.53;2.13;;;7.30;99.90;;;;;;4997309;28;20186;-91
2023/01/12 07:42:44;;;;;;;11.13;2.87;;;7.40;99.90;;;;;;4997443;28;20178;-90
2023/01/12 07:45:11;;;;;;;5.43;2.33;;;7.30;99.90;;;;;;4997119;28;20179;-91
2023/01/12 07:47:37;;;;;;;6.47;2.23;;;7.30;99.90;;;;;;4997324;28;20203;-91
2023/01/12 07:50:04;;;;;;;6.97;2.20;;;7.30;99.90;;;;;;4997079;28;20237;-90
2023/01/12 07:52:29;;;;;;;7.00;1.57;;;7.30;99.90;;;;;;5012926;28;20183;-91
2023/01/12 07:54:55;;;;;;;8.30;1.60;;;7.40;99.90;;;;;;4996782;28;20248;-91
2023/01/12 07:57:21;;;;;;;3.57;1.53;;;7.40;99.90;;;;;;5014551;28;20222;-91
2023/01/12 07:59:47;;;;;;;6.73;2.07;;;7.40;99.90;;;;;;4997034;28;20182;-93
2023/01/12 08:02:18;;;;;;;5.20;1.37;;;7.40;99.90;;;;;;4995774;28;20225;-93
2023/01/12 08:04:45;;;;;;;5.13;1.60;;;7.40;99.90;;;;;;4988963;28;20174;-92
2023/01/12 08:07:12;;;;;;;8.73;1.80;;;7.40;99.90;;;;;;5033446;28;20198;-92
2023/01/12 08:09:39;;;;;;;5.63;1.63;;;7.40;99.90;;;;;;5033190;28;20182;-92
2023/01/12 08:12:05;;;;;;;8.20;2.83;;;7.50;99.90;;;;;;5016829;28;20182;-94
2023/01/12 08:14:37;;;;;;;4.90;1.53;;;7.50;99.90;;;;;;5033428;28;20239;-93
2023/01/12 08:17:17;;;;;;;4.03;1.43;;;7.50;99.90;;;;;;5016716;28;20244;-91
2023/01/12 08:19:59;;;;;;;3.57;1.10;;;7.50;99.90;;;;;;5033766;28;20174;-93
2023/01/12 08:22:33;;;;;;;8.90;2.30;;;7.50;99.90;;;;;;5033512;28;20190;-92
2023/01/12 08:25:05;;;;;;;7.73;1.83;;;7.50;99.90;;;;;;5033531;28;20177;-92
2023/01/12 08:27:35;;;;;;;7.13;2.30;;;7.60;99.90;;;;;;5033409;28;20201;-92
2023/01/12 08:30:03;;;;;;;4.80;1.60;;;7.60;99.90;;;;;;5033176;28;20206;-92
2023/01/12 08:32:31;;;;;;;7.13;2.07;;;7.60;99.90;;;;;;5016926;28;20186;-92
2023/01/12 08:35:03;;;;;;;6.27;1.73;;;7.60;99.90;;;;;;5033116;28;20179;-92
2023/01/12 08:37:32;;;;;;;7.43;1.50;;;7.70;99.90;;;;;;5033492;28;20194;-92
2023/01/12 08:39:59;;;;;;;6.60;1.17;;;7.70;99.90;;;;;;5046161;28;20257;-92
2023/01/12 08:42:29;;;;;;;7.60;1.60;;;7.70;99.90;;;;;;5038900;28;20230;-92
2023/01/12 08:44:55;;;;;;;6.57;2.10;;;7.70;99.90;;;;;;5056246;28;20182;-92
2023/01/12 08:47:29;;;;;;;6.93;1.53;;;7.80;99.90;;;;;;5038982;28;20213;-92
2023/01/12 08:49:58;;;;;;;7.80;1.70;;;7.80;99.90;;;;;;5040324;28;20181;-92
2023/01/12 08:52:31;;;;;;;3.30;1.33;;;7.80;99.90;;;;;;5018517;28;20230;-91
2023/01/12 08:54:57;;;;;;;7.27;2.67;;;7.80;99.90;;;;;;5015915;28;20180;-91
2023/01/12 08:57:25;;;;;;;6.97;2.30;;;7.80;99.90;;;;;;5032272;28;20218;-93
2023/01/12 08:59:51;;;;;;;5.70;1.80;;;7.80;99.90;;;;;;5003243;28;20175;-92
2023/01/12 09:02:17;;;;;;;6.50;2.10;;;7.80;99.90;;;;;;5034448;28;20202;-93
2023/01/12 09:04:49;;;;;;;6.00;1.60;;;7.80;99.90;;;;;;5018971;28;20159;-93
2023/01/12 09:07:18;;;;;;;5.90;1.40;;;7.80;99.90;;;;;;5026857;28;20279;-93
2023/01/12 09:09:45;;;;;;;4.47;1.40;;;7.90;99.90;;;;;;5011174;28;20275;-88
2023/01/12 09:12:11;;;;;;;3.70;1.57;;;7.80;99.90;;;;;;4979008;28;20274;-88
2023/01/12 09:14:37;;;;;;;6.93;2.07;;;7.90;99.90;;;;;;4995278;28;20257;-88
2023/01/12 09:17:04;;;;;;;7.13;1.53;;;7.80;99.90;;;;;;4984488;28;20211;-88
2023/01/12 09:19:31;;;;;;;6.00;1.90;;;7.90;99.90;;;;;;4993357;28;20179;-88
2023/01/12 09:21:58;;;;;;;7.17;1.87;;;7.90;99.90;;;;;;5013721;28;20194;-92
2023/01/12 09:24:24;;;;;;;8.20;2.57;;;7.90;99.90;;;;;;5017790;28;20209;-91
2023/01/12 09:26:50;;;;;;;5.40;1.93;;;7.90;99.90;;;;;;5000950;28;20199;-92
2023/01/12 09:29:16;;;;;;;9.47;2.40;;;7.90;99.90;;;;;;5017173;28;20190;-92
2023/01/12 09:31:44;;;;;;;6.10;2.17;;;7.90;99.90;;;;;;5031587;28;20246;-93
2023/01/12 09:34:11;;;;;;;7.13;1.77;;;8.00;99.90;;;;;;5049952;28;20243;-93
2023/01/12 09:36:38;;;;;;;5.73;2.30;;;8.00;99.90;;;;;;5050449;28;20179;-92
2023/01/12 09:39:06;;;;;;;6.80;2.10;;;8.00;99.90;;;;;;5020724;28;20177;-91
2023/01/12 09:47:29;;;;;;;5.00;2.50;;;8.00;99.90;;;;;;5018761;28;20194;-93
2023/01/12 09:50:34;;;;;;;7.20;2.47;;;8.00;99.90;;;;;;5002597;28;20174;-92
2023/01/12 09:53:05;;;;;;;5.87;1.87;;;8.00;99.90;;;;;;4981386;28;20215;-93
2023/01/12 09:56:24;;;;;;;5.80;1.80;;;8.00;99.90;;;;;;5007352;28;20263;-93
2023/01/12 09:59:10;;;;;;;6.83;2.00;;;8.00;99.90;;;;;;5009743;28;20239;-91
2023/01/12 10:01:37;;;;;;;5.57;2.03;;;8.00;99.90;;;;;;5014626;28;20184;-91
2023/01/12 10:04:05;;;;;;;6.43;1.90;;;8.10;99.90;;;;;;5014493;28;20211;-92
2023/01/12 10:06:32;;;;;;;4.53;1.90;;;8.10;99.90;;;;;;4997474;28;20277;-91
2023/01/12 10:09:01;;;;;;;4.90;1.57;;;8.10;99.90;;;;;;5030282;28;20196;-91
2023/01/12 10:12:05;;;;;;;6.43;2.00;;;8.10;99.90;;;;;;5014822;28;20183;-93
2023/01/12 10:14:33;;;;;;;7.00;2.17;;;8.10;99.90;;;;;;5015751;28;20223;-92
2023/01/12 10:17:18;;;;;;;8.57;2.43;;;8.10;99.90;;;;;;5018292;28;20219;-91
2023/01/12 10:20:12;;;;;;;8.03;2.47;;;8.20;99.90;;;;;;5017417;28;20232;-93
2023/01/12 10:23:15;;;;;;;6.70;2.70;;;8.20;99.90;;;;;;5017848;28;20179;-91
2023/01/12 10:25:43;;;;;;;5.53;2.03;;;8.20;99.90;;;;;;5020727;28;20215;-91
2023/01/12 10:28:23;;;;;;;7.00;2.20;;;8.30;99.90;;;;;;5004974;28;20211;-93
2023/01/12 10:30:49;;;;;;;6.03;2.27;;;8.40;99.90;;;;;;5037522;28;20167;-93
2023/01/12 10:33:14;;;;;;;5.83;2.27;;;8.40;99.90;;;;;;5021387;28;20223;-91
2023/01/12 10:36:08;;;;;;;8.07;2.73;;;8.40;99.90;;;;;;5005131;28;20174;-92
2023/01/12 10:38:51;;;;;;;5.47;2.03;;;8.40;99.90;;;;;;4992096;28;20210;-92
2023/01/12 10:41:22;;;;;;;6.03;1.50;;;8.50;99.90;;;;;;5020625;28;20171;-92
2023/01/12 10:43:54;;;;;;;5.27;1.53;;;8.50;99.90;;;;;;5020925;28;20198;-91
2023/01/12 10:46:22;;;;;;;2.13;1.13;;;8.50;99.90;;;;;;5004772;28;20210;-91
2023/01/12 10:48:54;;;;;;;7.07;1.90;;;8.60;99.90;;;;;;5036968;28;20180;-93
2023/01/12 10:51:25;;;;;;;5.53;1.70;;;8.60;99.90;;;;;;5037255;28;20183;-92
2023/01/12 10:54:07;;;;;;;6.37;1.43;;;8.60;99.90;;;;;;5020719;28;20204;-93
2023/01/12 10:56:37;;;;;;;4.97;1.60;;;8.60;99.90;;;;;;5020385;28;20234;-92
2023/01/12 10:59:18;;;;;;;3.93;1.53;;;8.60;99.90;;;;;;5037492;28;20168;-94
2023/01/12 11:02:12;;;;;;;4.23;1.00;;;8.70;99.90;;;;;;5036880;28;20179;-92
2023/01/12 11:04:49;;;;;;;4.80;1.00;;;8.70;99.90;;;;;;5019530;28;20210;-92
2023/01/12 11:07:29;;;;;;;3.17;0.70;;;8.80;99.90;;;;;;5037564;28;20183;-91
2023/01/12 11:10:16;;;;;;;3.10;0.60;;;9.00;99.90;;;;;;5020324;28;20247;-93
2023/01/12 11:12:52;;;;;;;0.73;0.53;;;9.00;99.90;;;;;;5019985;28;20187;-93
2023/01/12 11:15:19;;;;;;;3.20;0.83;;;9.10;99.90;;;;;;5018454;28;20234;-93
2023/01/12 11:18:10;;;;;;;1.37;0.83;;;9.20;99.90;;;;;;5004166;28;20215;-93
2023/01/12 11:20:54;;;;;;;1.53;0.80;;;9.30;99.90;;;;;;5004582;28;20195;-92
2023/01/12 11:23:35;;;;;;;2.60;0.87;;;9.30;99.90;;;;;;5002451;28;20172;-93
2023/01/12 11:26:09;;;;;;;2.50;0.53;;;9.30;99.90;;;;;;4993112;28;20204;-94
2023/01/12 11:28:44;;;;;;;6.13;1.47;;;9.40;99.90;;;;;;4985588;28;20186;-93
2023/01/12 11:31:37;;;;;;;1.43;0.60;;;9.40;99.90;;;;;;4987591;28;20180;-93
2023/01/12 11:34:21;;;;;;;2.40;0.70;;;9.30;99.90;;;;;;5008927;28;20203;-94
2023/01/12 11:37:10;;;;;;;3.30;1.00;;;9.30;99.90;;;;;;4986948;28;20241;-93
2023/01/12 11:39:39;;;;;;;2.93;0.90;;;9.30;99.90;;;;;;5017129;28;20262;-93
2023/01/12 11:45:08;;;;;;;2.23;1.13;;;9.40;99.90;;;;;;5025239;28;20190;-93
2023/01/12 11:47:42;;;;;;;1.20;0.97;;;9.50;99.90;;;;;;5023196;28;20206;-94
2023/01/12 11:50:34;;;;;;;3.50;0.80;;;9.40;99.90;;;;;;5022623;28;20229;-93
2023/01/12 11:53:04;;;;;;;1.83;0.80;;;9.50;99.90;;;;;;5004239;28;20207;-93
2023/01/12 11:55:36;;;;;;;2.47;0.60;;;9.50;99.90;;;;;;5015527;28;20167;-93
2023/01/12 11:58:19;;;;;;;1.60;0.63;;;9.50;99.90;;;;;;5027243;28;20173;-93
2023/01/12 12:01:04;;;;;;;2.33;0.70;;;9.50;99.90;;;;;;4998997;28;20179;-92
2023/01/12 12:04:22;;;;;;;1.63;0.80;;;9.50;99.90;;;;;;4997111;28;20270;-92
2023/01/12 12:07:38;;;;;;;3.77;0.73;;;9.60;99.90;;;;;;4958760;28;20220;-94
2023/01/12 12:10:38;;;;;;;2.20;0.70;;;9.60;99.90;;;;;;4976459;28;20198;-93
2023/01/12 12:13:34;;;;;;;1.80;0.60;;;9.60;99.90;;;;;;4986902;28;20221;-93
2023/01/12 12:16:42;;;;;;;2.63;0.70;;;9.70;99.90;;;;;;5003489;28;20215;-93
2023/01/12 12:19:25;;;;;;;2.07;0.80;;;9.70;99.90;;;;;;5012259;28;20183;-92
2023/01/12 12:22:04;;;;;;;1.40;0.80;;;9.70;99.90;;;;;;5012501;28;20183;-93
2023/01/12 12:24:54;;;;;;;3.40;0.87;;;9.70;99.90;;;;;;5015594;28;20199;-92
2023/01/12 12:27:55;;;;;;;0.90;0.60;;;9.80;99.90;;;;;;4976849;28;20207;-92
2023/01/12 12:30:57;;;;;;;3.90;0.80;;;9.80;99.90;;;;;;4994170;28;20179;-92
2023/01/12 12:33:43;;;;;;;1.10;0.60;;;9.80;99.90;;;;;;5012653;28;20207;-92
2023/01/12 12:36:18;;;;;;;2.07;1.13;;;9.80;99.90;;;;;;5028863;28;20224;-92
2023/01/12 12:39:16;;;;;;;1.50;0.90;;;9.80;99.90;;;;;;5012457;28;20179;-92
2023/01/12 12:45:16;;;;;;;0.60;0.40;;;9.80;99.90;;;;;;5028579;28;20270;-92
2023/01/12 12:47:57;;;;;;;3.37;0.70;;;9.80;99.90;;;;;;5012075;28;20230;-92
2023/01/12 12:50:39;;;;;;;0.67;0.67;;;9.90;99.90;;;;;;5012328;28;20194;-92
2023/01/12 12:53:16;;;;;;;0.73;0.60;;;9.90;99.90;;;;;;5012151;28;20215;-93
2023/01/12 12:55:45;;;;;;;1.70;0.60;;;9.90;99.90;;;;;;5012298;28;20203;-92
2023/01/12 12:58:20;;;;;;;3.67;0.90;;;10.00;99.90;;;;;;5028820;28;20180;-92
2023/01/12 13:00:46;;;;;;;1.20;0.70;;;10.00;99.90;;;;;;5013048;28;20185;-93
2023/01/12 13:03:40;;;;;;;1.33;0.60;;;10.10;99.90;;;;;;5039105;28;20175;-93
2023/01/12 13:06:28;;;;;;;0.83;0.63;;;10.10;99.90;;;;;;5026136;28;20207;-93
2023/01/12 13:08:58;;;;;;;1.43;0.60;;;10.10;99.90;;;;;;5038938;28;20182;-92
2023/01/12 13:12:03;;;;;;;3.47;0.60;;;10.10;99.90;;;;;;5023630;28;20175;-94
2023/01/12 13:14:37;;;;;;;3.03;0.80;;;10.10;99.90;;;;;;5005793;28;20266;-93
2023/01/12 13:17:18;;;;;;;0.87;0.60;;;10.00;99.90;;;;;;4991486;28;20218;-93
2023/01/12 13:19:50;;;;;;;1.53;0.60;;;10.00;99.90;;;;;;5003863;28;20233;-93
2023/01/12 13:22:31;;;;;;;1.77;0.70;;;10.00;99.90;;;;;;4976305;28;20203;-92
2023/01/12 13:25:23;;;;;;;3.70;1.80;;;10.00;99.90;;;;;;4976729;28;20195;-91
2023/01/12 13:27:58;;;;;;;2.27;0.90;;;10.00;99.90;;;;;;4953981;28;20220;-92
2023/01/12 13:30:27;;;;;;;2.23;1.00;;;9.90;99.90;;;;;;4994162;28;20176;-92
2023/01/12 13:33:34;;;;;;;1.93;1.13;;;9.90;99.90;;;;;;4976424;28;20208;-92
2023/01/12 13:36:04;;;;;;;2.33;1.00;;;9.90;99.90;;;;;;4976674;28;20199;-93
2023/01/12 13:38:36;;;;;;;2.10;0.77;;;9.90;99.90;;;;;;5021734;28;20209;-93
2023/01/12 13:41:09;;;;;;;2.07;1.50;;;9.90;99.90;;;;;;5004045;28;20175;-92
2023/01/12 13:43:42;;;;;;;1.40;0.90;;;9.90;99.90;;;;;;5004538;28;20207;-92
2023/01/12 13:46:13;;;;;;;1.13;0.80;;;9.90;99.90;;;;;;5012932;28;20264;-92
2023/01/12 13:48:44;;;;;;;2.23;1.03;;;9.90;99.90;;;;;;5014227;28;20198;-92
2023/01/12 13:51:20;;;;;;;2.53;1.00;;;9.90;99.90;;;;;;4999481;28;20254;-92
2023/01/12 13:53:58;;;;;;;2.73;0.70;;;9.90;99.90;;;;;;4999260;28;20218;-92
2023/01/12 13:56:24;;;;;;;1.27;0.70;;;9.80;99.90;;;;;;4992307;28;20200;-92
2023/01/12 13:59:00;;;;;;;1.90;0.80;;;9.80;99.90;;;;;;4996123;28;20172;-92
2023/01/12 14:01:30;;;;;;;0.87;0.60;;;9.90;99.90;;;;;;4995795;28;20171;-92
2023/01/12 14:04:16;;;;;;;2.27;1.03;;;9.90;99.90;;;;;;4999544;28;20194;-91
2023/01/12 14:07:04;;;;;;;0.73;0.73;;;9.90;99.90;;;;;;5015307;28;20198;-92
2023/01/12 14:09:54;;;;;;;1.67;1.50;;;9.90;99.90;;;;;;5015543;28;20191;-92
2023/01/12 14:12:28;;;;;;;1.53;1.00;;;9.90;99.90;;;;;;4999489;28;20262;-92